Time;durP1;ratioP1;P1;durP2;ratioP2;P2;SDS_P1;SDS_P2;PMS_P1;PMS_P2;Temp;Humidity;BMP_temperature;BMP_pressure;BME280_temperature;BME280_humidity;BME280_pressure;Samples;Min_cycle;Max_cycle;Signal;HPM_P1;HPM_P2
2022/10/14 00:00:48;;;;;;;3.17;2.80;;;;;;;21.93;61.79;98912.81;2058456;28;20049;-52
2022/10/14 00:01:50;;;;;;;3.60;2.67;;;;;;;21.93;61.43;98918.19;2058868;28;20057;-50
2022/10/14 00:02:51;;;;;;;3.38;2.35;;;;;;;21.93;61.66;98915.50;2059783;28;20057;-49
2022/10/14 00:03:54;;;;;;;3.45;2.60;;;;;;;21.94;61.61;98914.44;2058737;28;20056;-54
2022/10/14 00:04:55;;;;;;;3.63;2.70;;;;;;;21.93;61.32;98914.69;2058142;28;20106;-49
2022/10/14 00:05:57;;;;;;;3.30;2.45;;;;;;;21.92;61.68;98913.81;2052000;28;20109;-51
2022/10/14 00:06:58;;;;;;;3.75;3.05;;;;;;;21.93;61.62;98910.09;2056892;28;20065;-49
2022/10/14 00:08:00;;;;;;;3.13;2.70;;;;;;;21.92;61.59;98913.81;2059490;28;20050;-50
2022/10/14 00:09:04;;;;;;;3.08;2.40;;;;;;;21.93;61.68;98918.19;2058652;28;20526;-52
2022/10/14 00:10:06;;;;;;;4.13;3.38;;;;;;;21.91;61.77;98912.19;2058310;28;20168;-52
2022/10/14 00:11:10;;;;;;;2.92;2.55;;;;;;;21.91;61.53;98906.78;2058678;28;20109;-49
2022/10/14 00:12:11;;;;;;;3.30;2.95;;;;;;;21.91;61.72;98912.19;2051885;28;20104;-52
2022/10/14 00:13:12;;;;;;;3.33;2.83;;;;;;;21.91;61.69;98911.38;2059367;28;20115;-50
2022/10/14 00:14:19;;;;;;;3.28;2.70;;;;;;;21.92;61.39;98910.31;2055397;28;20054;-50
2022/10/14 00:15:19;;;;;;;2.70;2.50;;;;;;;21.90;61.68;98913.25;2058574;28;20058;-51
2022/10/14 00:16:24;;;;;;;4.47;2.90;;;;;;;21.92;61.50;98910.31;2057846;28;20054;-50
2022/10/14 00:17:25;;;;;;;3.58;2.40;;;;;;;21.91;61.66;98909.50;2059364;28;20481;-50
2022/10/14 00:18:27;;;;;;;3.40;2.85;;;;;;;21.91;61.73;98912.19;2056950;28;20050;-51
2022/10/14 00:19:28;;;;;;;3.08;2.63;;;;;;;21.91;61.40;98914.88;2059479;28;20074;-49
2022/10/14 00:20:30;;;;;;;3.35;2.70;;;;;;;21.91;61.68;98912.19;2053753;28;20061;-49
2022/10/14 00:21:32;;;;;;;5.13;2.78;;;;;;;21.92;61.34;98911.13;2055204;28;20421;-51
2022/10/14 00:22:33;;;;;;;3.00;2.60;;;;;;;21.92;61.47;98908.44;2058370;28;20800;-54
2022/10/14 00:23:34;;;;;;;3.50;2.58;;;;;;;21.91;61.61;98909.50;2058035;28;20105;-54
2022/10/14 00:24:36;;;;;;;3.40;2.78;;;;;;;21.90;61.46;98910.53;2059676;28;20066;-49
2022/10/14 00:25:38;;;;;;;3.42;2.42;;;;;;;21.91;61.42;98901.38;2060361;28;20112;-49
2022/10/14 00:26:40;;;;;;;3.80;2.22;;;;;;;21.90;61.59;98907.00;2059836;28;20057;-48
2022/10/14 00:27:41;;;;;;;3.47;2.80;;;;;;;21.89;61.34;98914.28;2060705;28;20077;-47
2022/10/14 00:28:43;;;;;;;3.17;2.85;;;;;;;21.90;61.51;98915.09;2060109;28;20060;-52
2022/10/14 00:29:45;;;;;;;2.88;2.25;;;;;;;21.90;61.61;98915.94;2060046;28;21120;-53
2022/10/14 00:30:54;;;;;;;4.30;3.33;;;;;;;21.89;61.53;98913.44;2059193;28;20141;-50
2022/10/14 00:31:55;;;;;;;4.47;2.70;;;;;;;21.89;61.54;98908.88;2058532;28;20058;-49
2022/10/14 00:32:56;;;;;;;;;;;;;;;21.79;61.91;98913.94;2060153;28;20054;-49
2022/10/14 00:33:57;;;;;;;;;;;;;;;21.71;62.19;98906.91;2060761;28;19928;-51
2022/10/14 00:34:59;;;;;;;3.43;2.60;;;;;;;21.78;62.10;98914.97;2059428;28;20407;-52
2022/10/14 00:36:02;;;;;;;3.45;2.58;;;;;;;21.82;61.84;98908.09;2054862;28;20083;-49
2022/10/14 00:37:03;;;;;;;4.18;2.60;;;;;;;21.84;61.67;98912.25;2059768;28;20062;-51
2022/10/14 00:38:04;;;;;;;3.65;2.70;;;;;;;21.85;61.73;98910.38;2057164;28;20809;-47
2022/10/14 00:39:06;;;;;;;3.42;2.90;;;;;;;21.87;61.60;98910.97;2056216;28;20050;-55
2022/10/14 00:40:08;;;;;;;3.40;2.70;;;;;;;21.87;61.61;98905.59;2057874;28;20046;-50
2022/10/14 00:41:11;;;;;;;2.97;2.42;;;;;;;21.88;61.52;98915.31;2057665;28;20081;-50
2022/10/14 00:42:13;;;;;;;2.83;2.60;;;;;;;21.88;61.39;98909.09;2057892;28;20085;-51
2022/10/14 00:43:15;;;;;;;3.88;2.85;;;;;;;21.86;61.62;98893.94;2059306;28;20054;-49
2022/10/14 00:44:52;;;;;;;4.07;2.78;;;;;;;21.84;61.56;98909.53;2057868;28;20054;-50
2022/10/14 00:45:55;;;;;;;3.90;3.25;;;;;;;21.83;61.76;98899.78;2049775;28;20051;-51
2022/10/14 00:46:56;;;;;;;3.13;2.60;;;;;;;21.84;61.76;98901.44;2060039;28;20050;-52
2022/10/14 00:47:58;;;;;;;3.53;2.67;;;;;;;21.85;61.42;98904.97;2059692;28;20578;-54
2022/10/14 00:49:04;;;;;;;3.45;2.63;;;;;;;21.85;61.65;98905.78;2058498;28;20050;-51
2022/10/14 00:50:06;;;;;;;3.38;2.53;;;;;;;21.86;61.64;98898.50;2058140;28;20056;-51
2022/10/14 00:51:07;;;;;;;2.97;2.67;;;;;;;21.85;61.49;98896.88;2053316;28;20508;-53
2022/10/14 00:52:14;;;;;;;2.65;2.40;;;;;;;21.86;61.68;98907.44;2059712;28;20048;-49
2022/10/14 00:53:16;;;;;;;2.88;2.58;;;;;;;21.85;61.58;98902.25;2060554;28;20417;-49
2022/10/14 00:54:23;;;;;;;3.42;2.70;;;;;;;21.85;61.45;98904.97;2058221;28;20408;-47
2022/10/14 00:55:24;;;;;;;4.10;3.10;;;;;;;21.85;61.74;98905.78;2060242;28;20630;-50
2022/10/14 00:56:29;;;;;;;2.90;2.35;;;;;;;21.86;61.63;98901.22;2060393;28;20065;-47
2022/10/14 00:57:31;;;;;;;4.00;2.88;;;;;;;21.86;61.60;98910.13;2060126;28;20484;-51
2022/10/14 00:58:32;;;;;;;3.25;2.80;;;;;;;21.85;61.52;98892.28;2060690;28;20050;-49
2022/10/14 00:59:34;;;;;;;3.55;2.50;;;;;;;21.85;61.50;98897.69;2060246;28;20168;-49
2022/10/14 01:00:36;;;;;;;3.03;2.20;;;;;;;21.86;61.45;98901.22;2059571;28;20674;-46
2022/10/14 01:01:39;;;;;;;3.00;2.58;;;;;;;21.85;61.56;98900.38;2056757;28;20050;-47
2022/10/14 01:02:42;;;;;;;2.90;2.60;;;;;;;21.85;61.56;98902.25;2060561;28;20078;-47
2022/10/14 01:03:43;;;;;;;3.00;2.70;;;;;;;21.85;61.54;98908.50;2056694;28;20125;-47
2022/10/14 01:04:45;;;;;;;3.50;2.83;;;;;;;21.85;61.51;98902.25;2060657;28;20065;-47
2022/10/14 01:05:51;;;;;;;3.45;2.60;;;;;;;21.85;61.49;98900.38;2057809;28;20072;-47
2022/10/14 01:07:05;;;;;;;4.38;2.78;;;;;;;21.84;61.71;98900.59;2055996;28;20511;-48
2022/10/14 01:08:13;;;;;;;3.42;2.63;;;;;;;21.82;61.69;98897.31;2058929;28;20053;-49
2022/10/14 01:09:28;;;;;;;5.95;2.83;;;;;;;21.81;61.79;98898.31;2059670;28;20100;-48
2022/10/14 01:10:37;;;;;;;8.23;2.60;;;;;;;21.82;61.70;98900.00;2058142;28;20554;-47
2022/10/14 01:11:45;;;;;;;3.20;2.72;;;;;;;21.81;61.92;98893.78;2052907;28;20054;-47
2022/10/14 01:13:00;;;;;;;2.50;2.30;;;;;;;21.82;61.65;98894.59;2057081;28;20058;-47
2022/10/14 01:14:14;;;;;;;4.22;3.03;;;;;;;21.81;61.78;98893.78;2054236;28;20719;-48
2022/10/14 01:15:22;;;;;;;3.47;2.97;;;;;;;21.82;61.69;98897.31;2056187;28;20054;-47
2022/10/14 01:16:31;;;;;;;3.55;3.10;;;;;;;21.81;61.90;98893.78;2059597;28;20536;-47
2022/10/14 01:17:47;;;;;;;4.03;2.28;;;;;;;21.80;61.71;98900.22;2046391;28;20054;-49
2022/10/14 01:19:00;;;;;;;3.03;2.72;;;;;;;21.80;61.78;98896.69;2057829;28;20062;-47
2022/10/14 01:20:25;;;;;;;4.90;2.25;;;;;;;21.79;61.80;98892.34;2056469;28;20069;-48
2022/10/14 01:21:31;;;;;;;3.80;2.40;;;;;;;21.79;61.93;98892.34;2054969;28;20061;-47
2022/10/14 01:22:35;;;;;;;3.53;2.67;;;;;;;21.80;61.79;98888.59;2057354;28;20137;-47
2022/10/14 01:23:53;;;;;;;4.30;2.78;;;;;;;21.80;61.56;98891.28;2058222;28;20042;-46
2022/10/14 01:25:05;;;;;;;3.47;2.90;;;;;;;21.80;61.54;98888.59;2056729;28;20093;-47
2022/10/14 01:26:25;;;;;;;5.38;2.67;;;;;;;21.78;61.80;98890.66;2056427;28;20057;-48
2022/10/14 01:27:51;;;;;;;3.33;2.90;;;;;;;21.77;61.72;98883.63;2058133;28;20057;-48
2022/10/14 01:29:11;;;;;;;2.90;2.60;;;;;;;21.77;61.70;98886.31;2058693;28;20042;-47
2022/10/14 01:30:17;;;;;;;3.50;2.58;;;;;;;21.77;61.62;98884.44;2058895;28;20199;-48
2022/10/14 01:31:22;;;;;;;3.50;2.92;;;;;;;21.80;61.66;98881.31;2057493;28;20113;-47
2022/10/14 01:32:26;;;;;;;3.47;2.58;;;;;;;21.79;61.63;98881.53;2058062;28;20042;-48
2022/10/14 01:33:35;;;;;;;3.17;2.45;;;;;;;21.79;61.64;98873.44;2050313;28;21749;-49
2022/10/14 01:34:41;;;;;;;3.35;2.80;;;;;;;21.80;61.64;98875.09;2054917;28;20082;-48
2022/10/14 01:36:04;;;;;;;3.65;3.35;;;;;;;21.76;61.83;98880.09;2059015;28;20061;-47
2022/10/14 01:37:12;;;;;;;3.08;2.45;;;;;;;21.77;61.59;98864.72;2053229;28;21037;-48
2022/10/14 01:38:20;;;;;;;3.35;2.22;;;;;;;21.78;61.65;98874.47;2057374;28;20046;-47
2022/10/14 01:39:25;;;;;;;4.15;2.50;;;;;;;21.79;61.75;98870.75;2053380;28;20053;-49
2022/10/14 01:40:34;;;;;;;3.78;2.80;;;;;;;21.78;61.58;98869.88;2055185;28;20073;-48
2022/10/14 01:41:40;;;;;;;3.15;2.80;;;;;;;21.78;61.79;98866.38;2058952;28;20402;-47
2022/10/14 01:42:46;;;;;;;3.33;2.95;;;;;;;21.79;61.77;98870.75;2061100;28;20051;-48
2022/10/14 01:43:49;;;;;;;4.13;2.90;;;;;;;21.79;61.64;98862.66;2060776;28;20111;-49
2022/10/14 01:44:56;;;;;;;3.05;2.70;;;;;;;21.78;61.72;98859.09;2059957;28;20054;-49
2022/10/14 01:46:01;;;;;;;3.97;3.03;;;;;;;21.78;61.52;98860.97;2057777;28;20993;-48
2022/10/14 01:47:04;;;;;;;3.15;2.83;;;;;;;21.78;61.46;98859.09;2054366;28;22180;-48
2022/10/14 01:48:06;;;;;;;3.97;2.72;;;;;;;21.79;61.63;98865.34;2058675;28;20050;-50
2022/10/14 01:49:12;;;;;;;3.33;2.35;;;;;;;21.80;61.70;98857.00;2057828;28;20133;-48
2022/10/14 01:50:16;;;;;;;2.72;2.47;;;;;;;21.78;61.85;98852.88;2059840;28;20635;-48
2022/10/14 01:51:22;;;;;;;2.60;2.40;;;;;;;21.78;61.82;98856.38;2060322;28;20074;-49
2022/10/14 01:52:28;;;;;;;3.42;3.08;;;;;;;21.78;61.72;98858.28;2055025;28;20059;-50
2022/10/14 01:53:35;;;;;;;3.50;2.22;;;;;;;21.78;61.55;98855.56;2059300;28;20061;-49
2022/10/14 01:54:40;;;;;;;2.53;2.20;;;;;;;21.78;61.78;98853.69;2058048;28;20448;-52
2022/10/14 01:55:45;;;;;;;4.47;2.88;;;;;;;21.79;61.75;98849.97;2058067;28;20085;-50
2022/10/14 01:56:47;;;;;;;3.25;2.55;;;;;;;21.77;61.48;98845.81;2056202;28;20054;-50
2022/10/14 01:57:52;;;;;;;3.33;2.83;;;;;;;21.79;61.81;98849.97;2056383;28;20092;-51
2022/10/14 01:58:53;;;;;;;3.55;2.70;;;;;;;21.79;61.71;98854.53;2054387;28;20050;-53
2022/10/14 01:59:56;;;;;;;2.45;2.25;;;;;;;21.79;61.79;98843.75;2056629;28;21029;-48
2022/10/14 02:01:01;;;;;;;2.92;2.63;;;;;;;21.78;61.47;98845.59;2059030;28;20057;-51
2022/10/14 02:02:03;;;;;;;3.47;3.15;;;;;;;21.76;61.70;98845.00;2054322;28;20523;-48
2022/10/14 02:03:04;;;;;;;2.63;2.30;;;;;;;21.78;61.46;98839.38;2059024;28;20055;-49
2022/10/14 02:04:14;;;;;;;3.25;2.80;;;;;;;21.77;61.33;98843.13;2057219;28;20049;-51
2022/10/14 02:05:20;;;;;;;3.53;2.83;;;;;;;21.76;61.62;98834.22;2055885;28;20082;-53
2022/10/14 02:06:30;;;;;;;2.72;2.53;;;;;;;21.75;61.56;98832.53;2048530;28;20571;-50
2022/10/14 02:07:36;;;;;;;3.05;2.75;;;;;;;21.75;61.77;98831.72;2046061;28;20137;-51
2022/10/14 02:08:52;;;;;;;3.10;2.17;;;;;;;21.75;61.79;98837.13;2058519;28;20089;-48
2022/10/14 02:10:02;;;;;;;4.55;2.67;;;;;;;21.74;61.59;98830.88;2057995;28;20061;-52
2022/10/14 02:11:09;;;;;;;4.20;2.97;;;;;;;21.73;61.69;98828.41;2057893;28;20407;-51
2022/10/14 02:12:23;;;;;;;3.92;2.80;;;;;;;21.74;61.72;98835.47;2058020;28;20046;-53
2022/10/14 02:13:39;;;;;;;3.83;2.67;;;;;;;21.73;61.62;98825.69;2057258;28;20085;-51
2022/10/14 02:14:48;;;;;;;3.13;2.83;;;;;;;21.74;61.85;98827.38;2054914;28;20051;-51
2022/10/14 02:15:59;;;;;;;2.95;2.45;;;;;;;21.74;61.65;98835.47;2057663;28;20508;-53
2022/10/14 02:17:06;;;;;;;5.30;2.70;;;;;;;21.74;61.75;98830.88;2052156;28;20058;-52
2022/10/14 02:18:11;;;;;;;3.40;2.83;;;;;;;;;;2055645;28;20061;-52
2022/10/14 02:19:18;;;;;;;3.50;2.22;;;;;;;;;;2058935;28;20471;-50
2022/10/14 02:20:25;;;;;;;3.53;2.65;;;;;;;21.75;61.66;98835.22;2059443;28;20632;-49
2022/10/14 02:21:33;;;;;;;3.40;2.40;;;;;;;21.75;61.51;98829.00;2058040;28;20740;-49
2022/10/14 02:22:40;;;;;;;5.10;2.80;;;;;;;21.74;61.57;98833.59;2056372;28;20058;-51
2022/10/14 02:23:44;;;;;;;4.45;2.97;;;;;;;21.74;61.69;98830.06;2054180;28;20108;-53
2022/10/14 02:24:51;;;;;;;2.90;2.35;;;;;;;21.73;61.78;98828.41;2059091;28;20053;-51
2022/10/14 02:25:53;;;;;;;2.90;2.63;;;;;;;21.74;61.62;98827.38;2054670;28;20053;-53
2022/10/14 02:27:00;;;;;;;4.53;2.65;;;;;;;21.74;61.73;98836.28;2057198;28;20178;-50
2022/10/14 02:28:03;;;;;;;3.78;2.97;;;;;;;21.74;61.65;98832.78;2055473;28;20141;-52
2022/10/14 02:29:06;;;;;;;3.40;2.50;;;;;;;21.74;61.65;98830.88;2058265;28;20058;-52
2022/10/14 02:30:08;;;;;;;3.75;2.63;;;;;;;21.75;61.46;98831.72;2059920;28;20551;-51
2022/10/14 02:31:13;;;;;;;4.22;3.22;;;;;;;21.73;61.80;98828.41;2059154;28;20078;-52
2022/10/14 02:32:19;;;;;;;4.90;2.88;;;;;;;21.73;61.89;98831.09;2058570;28;20047;-50
2022/10/14 02:33:22;;;;;;;4.32;2.90;;;;;;;21.73;61.49;98833.78;2057659;28;20117;-50
2022/10/14 02:34:25;;;;;;;3.25;2.75;;;;;;;21.73;61.71;98831.09;2056517;28;20050;-51
2022/10/14 02:35:27;;;;;;;3.13;2.53;;;;;;;;;;2060391;28;20421;-53
2022/10/14 02:36:31;;;;;;;3.25;2.95;;;;;;;21.74;61.75;98824.66;2059090;28;20058;-48
2022/10/14 02:37:33;;;;;;;2.75;2.33;;;;;;;21.74;61.57;98835.47;2053309;28;20055;-53
2022/10/14 02:38:35;;;;;;;3.22;2.33;;;;;;;21.73;61.83;98823.00;2057802;28;20062;-47
2022/10/14 02:39:42;;;;;;;3.70;2.97;;;;;;;21.74;61.61;98824.66;2059507;28;20401;-50
2022/10/14 02:40:45;;;;;;;2.90;2.55;;;;;;;21.71;61.68;98825.13;2058617;28;20100;-50
2022/10/14 02:41:47;;;;;;;5.45;2.38;;;;;;;21.70;61.70;98823.44;2060098;28;20133;-49
2022/10/14 02:42:48;;;;;;;3.05;2.70;;;;;;;21.70;61.76;98821.56;2059553;28;20057;-52
2022/10/14 02:43:50;;;;;;;3.90;3.15;;;;;;;21.72;61.79;98821.34;2059237;28;20061;-50
2022/10/14 02:44:51;;;;;;;3.70;2.92;;;;;;;;;;2058067;28;20131;-52
2022/10/14 02:45:58;;;;;;;3.67;2.97;;;;;;;21.73;61.63;98823.00;2060131;28;20057;-53
2022/10/14 02:46:58;;;;;;;3.63;2.75;;;;;;;21.71;61.60;98825.94;2059551;28;20634;-51
2022/10/14 02:48:01;;;;;;;;;;;;;;;21.61;61.80;98815.59;2054294;28;20050;-51
2022/10/14 02:49:02;;;;;;;3.50;2.58;;;;;;;21.66;61.78;98824.94;2054089;28;19925;-49
2022/10/14 02:50:05;;;;;;;3.53;3.08;;;;;;;21.68;61.90;98823.69;2058728;28;20054;-51
2022/10/14 02:51:06;;;;;;;3.53;3.15;;;;;;;21.70;61.88;98823.44;2057168;28;20096;-52
2022/10/14 02:52:07;;;;;;;;;;;;;;;21.60;61.95;98822.06;2060820;28;20128;-51
2022/10/14 02:53:09;;;;;;;;;;;;;;;21.54;62.07;98819.41;2054771;28;19921;-53
2022/10/14 02:54:11;;;;;;;3.00;2.35;;;;;;;21.59;62.15;98817.72;2054281;28;19937;-50
2022/10/14 02:55:12;;;;;;;5.30;3.17;;;;;;;21.64;61.94;98817.03;2059138;28;20806;-50
2022/10/14 02:56:14;;;;;;;3.65;3.35;;;;;;;21.67;61.98;98818.47;2059675;28;20042;-52
2022/10/14 02:57:15;;;;;;;3.70;2.75;;;;;;;21.68;61.71;98820.97;2059678;28;20054;-49
2022/10/14 02:58:16;;;;;;;;;;;;;;;21.59;62.01;98823.13;2059928;28;20497;-50
2022/10/14 02:59:17;;;;;;;4.10;2.60;;;;;;;21.62;61.86;98816.47;2057514;28;19925;-49
2022/10/14 03:00:19;;;;;;;;;;;;;;;21.55;62.08;98815.66;2056244;28;22626;-48
2022/10/14 03:01:20;;;;;;;3.95;3.10;;;;;;;21.58;62.10;98816.03;2059419;28;19953;-51
2022/10/14 03:02:22;;;;;;;3.55;2.95;;;;;;;21.62;61.87;98816.47;2059893;28;20053;-51
2022/10/14 03:03:24;;;;;;;4.50;2.33;;;;;;;21.67;62.05;98821.19;2059744;28;20050;-50
2022/10/14 03:04:26;;;;;;;3.60;3.28;;;;;;;21.66;61.72;98814.97;2059121;28;20128;-50
2022/10/14 03:05:26;;;;;;;5.35;3.35;;;;;;;21.68;61.77;98817.47;2059075;28;20061;-51
2022/10/14 03:06:28;;;;;;;3.35;2.72;;;;;;;21.69;61.65;98824.50;2058094;28;20414;-52
2022/10/14 03:07:29;;;;;;;4.88;3.30;;;;;;;21.68;61.83;98820.16;2059197;28;20054;-48
2022/10/14 03:08:31;;;;;;;3.17;2.88;;;;;;;21.68;61.81;98814.75;2053442;28;20572;-53
2022/10/14 03:09:32;;;;;;;3.03;2.60;;;;;;;21.68;61.66;98817.47;2054456;28;20419;-50
2022/10/14 03:10:33;;;;;;;3.03;2.70;;;;;;;21.68;61.73;98820.16;2057767;28;20050;-50
2022/10/14 03:11:34;;;;;;;3.00;2.80;;;;;;;21.68;61.56;98814.75;2059445;28;20649;-48
2022/10/14 03:12:36;;;;;;;;;;;;;;;21.59;61.80;98812.31;2060443;28;20054;-52
2022/10/14 03:13:37;;;;;;;6.15;2.90;;;;;;;21.61;62.19;98820.19;2058733;28;19933;-48
2022/10/14 03:14:38;;;;;;;;;;;;;;;21.53;62.12;98823.97;2059033;28;20145;-54
2022/10/14 03:15:39;;;;;;;;;;;;;;;21.48;62.42;98826.53;2059219;28;19925;-51
2022/10/14 03:16:41;;;;;;;3.15;2.33;;;;;;;21.54;62.18;98828.34;2059635;28;19965;-52
2022/10/14 03:17:42;;;;;;;4.35;2.50;;;;;;;21.58;61.98;98826.03;2059821;28;20046;-51
2022/10/14 03:18:45;;;;;;;;;;;;;;;21.51;62.25;98826.09;2059674;28;20386;-52
2022/10/14 03:19:45;;;;;;;3.25;2.95;;;;;;;21.56;62.06;98828.97;2055130;28;19925;-52
2022/10/14 03:20:47;;;;;;;;;;;;;;;21.50;62.42;98824.41;2058498;28;20058;-53
2022/10/14 03:21:48;;;;;;;3.25;2.63;;;;;;;21.55;62.18;98827.28;2059367;28;19929;-53
2022/10/14 03:22:50;;;;;;;3.22;2.58;;;;;;;21.59;62.00;98827.66;2059754;28;20050;-52
2022/10/14 03:23:51;;;;;;;4.13;2.75;;;;;;;21.61;61.86;98822.88;2053551;28;21121;-52
2022/10/14 03:24:53;;;;;;;3.97;2.78;;;;;;;21.64;61.94;98825.16;2058340;28;20062;-53
2022/10/14 03:25:54;;;;;;;3.60;3.03;;;;;;;21.64;61.95;98819.75;2056818;28;20069;-49
2022/10/14 03:26:56;;;;;;;;;;;;;;;21.55;62.00;98821.88;2059091;28;20050;-50
2022/10/14 03:27:56;;;;;;;;;;;;;;;21.47;62.39;98818.63;2056638;28;20528;-51
2022/10/14 03:28:58;;;;;;;2.75;2.53;;;;;;;21.52;62.37;98819.63;2058004;28;19925;-52
2022/10/14 03:29:59;;;;;;;3.08;2.78;;;;;;;21.57;61.98;98822.50;2056360;28;20054;-50
2022/10/14 03:31:00;;;;;;;2.92;2.70;;;;;;;21.59;62.03;98823.13;2058500;28;20058;-50
2022/10/14 03:32:01;;;;;;;3.88;3.25;;;;;;;21.61;61.73;98818.31;2056668;28;20054;-53
2022/10/14 03:33:03;;;;;;;5.53;3.60;;;;;;;21.63;61.88;98818.91;2056016;28;20050;-51
2022/10/14 03:34:05;;;;;;;4.03;3.38;;;;;;;21.63;61.88;98818.09;2053235;28;20057;-50
2022/10/14 03:35:08;;;;;;;3.42;3.13;;;;;;;21.64;61.78;98820.56;2057252;28;20065;-50
2022/10/14 03:36:09;;;;;;;3.45;3.00;;;;;;;21.62;61.89;98819.97;2057736;28;20053;-48
2022/10/14 03:37:11;;;;;;;2.72;2.38;;;;;;;21.63;61.80;98813.53;2056932;28;20536;-50
2022/10/14 03:38:12;;;;;;;3.40;2.80;;;;;;;21.64;61.63;98819.75;2056124;28;20082;-50
2022/10/14 03:39:13;;;;;;;;;;;;;;;21.53;61.93;98818.56;2054412;28;20459;-53
2022/10/14 03:40:14;;;;;;;;;;;;;;;21.47;62.15;98824.84;2057585;28;20012;-51
2022/10/14 03:41:16;;;;;;;3.13;2.80;;;;;;;21.51;62.37;98819.88;2059502;28;19925;-50
2022/10/14 03:42:16;;;;;;;3.83;2.78;;;;;;;21.56;61.95;98822.72;2057748;28;20196;-50
2022/10/14 03:43:18;;;;;;;5.03;3.08;;;;;;;21.60;61.84;98818.53;2059251;28;20050;-51
2022/10/14 03:44:19;;;;;;;3.58;2.85;;;;;;;21.60;62.12;98819.38;2059183;28;20053;-53
2022/10/14 03:45:21;;;;;;;2.65;2.45;;;;;;;21.61;61.84;98818.31;2059625;28;20548;-51
2022/10/14 03:46:21;;;;;;;4.43;2.40;;;;;;;21.62;61.73;98817.28;2056400;28;20054;-51
2022/10/14 03:47:23;;;;;;;;;;;;;;;21.53;62.04;98815.88;2059729;28;20050;-51
2022/10/14 03:48:24;;;;;;;;;;;;;;;21.46;62.13;98816.97;2060088;28;19952;-53
2022/10/14 03:49:27;;;;;;;4.30;2.57;;;;;;;21.51;62.30;98815.28;2059903;28;19925;-50
2022/10/14 03:50:28;;;;;;;3.20;2.85;;;;;;;21.53;62.03;98813.16;2059534;28;20305;-53
2022/10/14 03:51:29;;;;;;;4.43;2.97;;;;;;;21.57;61.93;98810.88;2058977;28;20062;-51
2022/10/14 03:52:30;;;;;;;3.47;3.10;;;;;;;21.59;61.98;98812.31;2055852;28;20059;-53
2022/10/14 03:53:32;;;;;;;3.70;3.20;;;;;;;21.61;61.90;98809.38;2054969;28;20504;-51
2022/10/14 03:54:33;;;;;;;6.00;3.30;;;;;;;21.60;61.83;98807.75;2059394;28;20516;-51
2022/10/14 03:55:34;;;;;;;;;;;;;;;21.51;62.12;98806.38;2059049;28;20054;-49
2022/10/14 03:56:35;;;;;;;4.60;3.35;;;;;;;21.53;62.21;98813.16;2059490;28;19968;-49
2022/10/14 03:57:37;;;;;;;;;;;;;;;21.47;62.34;98814.06;2059214;28;20117;-49
2022/10/14 03:58:37;;;;;;;4.38;3.50;;;;;;;21.51;62.34;98812.59;2059670;28;20916;-52
2022/10/14 03:59:39;;;;;;;;;;;;;;;21.45;62.25;98805.34;2059401;28;20101;-49
2022/10/14 04:00:40;;;;;;;3.45;2.65;;;;;;;21.50;62.25;98813.63;2060179;28;19971;-51
2022/10/14 04:01:41;;;;;;;;;;;;;;;21.45;62.38;98816.13;2062555;28;20054;-52
2022/10/14 04:02:42;;;;;;;4.35;3.28;;;;;;;21.50;62.06;98824.41;2058456;28;19967;-48
2022/10/14 04:03:45;;;;;;;;;;;;;;;21.43;62.39;98818.25;2056388;28;20054;-50
2022/10/14 04:04:47;;;;;;;4.20;3.17;;;;;;;21.49;62.09;98808.44;2060336;28;19933;-51
2022/10/14 04:05:49;;;;;;;3.67;3.10;;;;;;;21.53;61.93;98805.06;2058086;28;20057;-48
2022/10/14 04:06:50;;;;;;;3.75;2.60;;;;;;;21.56;61.94;98818.16;2061895;28;20074;-51
2022/10/14 04:07:52;;;;;;;3.42;3.13;;;;;;;21.57;61.91;98810.88;2059077;28;20389;-50
2022/10/14 04:08:53;;;;;;;6.15;2.95;;;;;;;21.58;62.08;98812.53;2057488;28;20524;-50
2022/10/14 04:09:55;;;;;;;;;;;;;;;21.48;62.05;98809.47;2061616;28;20059;-50
2022/10/14 04:10:55;;;;;;;3.05;2.72;;;;;;;21.52;62.22;98810.72;2060700;28;20594;-51
2022/10/14 04:11:57;;;;;;;;;;;;;;;21.44;62.45;98814.50;2060152;28;20050;-52
2022/10/14 04:12:57;;;;;;;;;;;;;;;21.39;62.49;98811.63;2058090;28;20264;-50
2022/10/14 04:14:00;;;;;;;3.25;2.92;;;;;;;21.45;62.53;98810.72;2059555;28;19933;-49
2022/10/14 04:15:01;;;;;;;3.78;3.00;;;;;;;21.50;62.13;98813.63;2060445;28;20570;-51
2022/10/14 04:16:05;;;;;;;5.07;3.28;;;;;;;21.53;62.11;98807.78;2059886;28;20057;-51
2022/10/14 04:17:06;;;;;;;3.78;3.13;;;;;;;21.54;61.79;98804.06;2058739;28;20057;-51
2022/10/14 04:18:08;;;;;;;3.22;2.45;;;;;;;21.56;61.69;98809.22;2058927;28;20500;-50
2022/10/14 04:19:09;;;;;;;3.38;2.65;;;;;;;21.56;62.11;98807.38;2061223;28;20046;-53
2022/10/14 04:20:14;;;;;;;2.90;2.53;;;;;;;21.57;61.81;98808.19;2060617;28;20479;-52
2022/10/14 04:21:15;;;;;;;4.20;2.70;;;;;;;21.57;61.99;98803.59;2049924;28;20100;-54
2022/10/14 04:22:17;;;;;;;4.60;3.20;;;;;;;21.56;62.10;98807.38;2056884;28;21037;-52
2022/10/14 04:23:18;;;;;;;3.70;2.53;;;;;;;21.58;61.90;98805.25;2055986;28;20054;-51
2022/10/14 04:24:20;;;;;;;4.28;3.17;;;;;;;21.57;62.03;98809.00;2061389;28;20109;-53
2022/10/14 04:25:21;;;;;;;4.07;2.88;;;;;;;21.57;61.83;98803.59;2060698;28;20046;-54
2022/10/14 04:26:23;;;;;;;;;;;;;;;21.48;61.97;98814.88;2060906;28;20068;-49
2022/10/14 04:27:23;;;;;;;;;;;;;;;21.41;62.39;98804.13;2057928;28;20552;-49
2022/10/14 04:28:25;;;;;;;2.63;2.42;;;;;;;21.45;62.15;98809.91;2056587;28;19925;-52
2022/10/14 04:29:26;;;;;;;3.42;2.45;;;;;;;21.49;62.06;98809.28;2059131;28;20054;-48
2022/10/14 04:30:28;;;;;;;3.80;3.03;;;;;;;21.53;62.03;98813.16;2060521;28;20411;-52
2022/10/14 04:31:29;;;;;;;4.93;2.83;;;;;;;21.54;62.27;98809.44;2054787;28;20058;-50
2022/10/14 04:32:31;;;;;;;4.60;3.47;;;;;;;21.55;61.83;98805.69;2057859;28;20139;-51
2022/10/14 04:33:33;;;;;;;4.60;3.00;;;;;;;21.56;61.88;98803.81;2061060;28;20061;-54
2022/10/14 04:34:35;;;;;;;3.55;3.25;;;;;;;21.56;61.75;98801.97;2059571;28;20125;-52
2022/10/14 04:35:37;;;;;;;4.68;2.53;;;;;;;21.57;61.92;98808.19;2062303;28;20050;-50
2022/10/14 04:36:39;;;;;;;3.33;3.03;;;;;;;21.56;61.74;98801.13;2060038;28;21128;-49
2022/10/14 04:37:41;;;;;;;3.45;3.13;;;;;;;21.56;61.97;98801.13;2060662;28;20053;-51
2022/10/14 04:38:42;;;;;;;4.55;3.33;;;;;;;21.56;62.02;98798.41;2059759;28;20062;-51
2022/10/14 04:39:43;;;;;;;;;;;;;;;21.46;61.87;98798.09;2061057;28;20133;-47
2022/10/14 04:40:44;;;;;;;4.22;3.38;;;;;;;21.49;62.36;98798.47;2059418;28;19948;-50
2022/10/14 04:41:46;;;;;;;;;;;;;;;21.41;62.17;98804.13;2061264;28;20085;-51
2022/10/14 04:42:46;;;;;;;4.68;3.05;;;;;;;21.45;62.25;98799.94;2060481;28;20023;-51
2022/10/14 04:43:48;;;;;;;;;;;;;;;21.38;62.34;98797.31;2062583;28;20062;-49
2022/10/14 04:44:49;;;;;;;6.18;3.33;;;;;;;21.44;62.13;98798.31;2057775;28;19938;-51
2022/10/14 04:45:51;;;;;;;3.50;2.70;;;;;;;21.47;62.09;98797.84;2061190;28;20123;-50
2022/10/14 04:46:52;;;;;;;7.60;3.83;;;;;;;21.52;61.83;98802.63;2059130;28;20062;-52
2022/10/14 04:47:53;;;;;;;3.53;2.65;;;;;;;21.53;61.98;98801.56;2061789;28;20052;-53
2022/10/14 04:48:54;;;;;;;3.33;2.85;;;;;;;21.54;61.73;98797.84;2061624;28;20595;-49
2022/10/14 04:49:56;;;;;;;3.13;2.83;;;;;;;21.53;61.86;98802.38;2059019;28;20057;-50
2022/10/14 04:50:58;;;;;;;3.35;2.78;;;;;;;21.52;61.70;98800.72;2060900;28;20059;-52
2022/10/14 04:52:00;;;;;;;4.32;2.47;;;;;;;21.53;61.98;98805.06;2048716;28;20124;-50
2022/10/14 04:53:01;;;;;;;3.45;3.10;;;;;;;21.54;61.78;98804.06;2058255;28;20054;-49
2022/10/14 04:54:03;;;;;;;3.75;3.10;;;;;;;21.55;61.67;98791.38;2059092;28;20047;-50
2022/10/14 04:55:04;;;;;;;3.35;3.05;;;;;;;21.53;61.74;98796.97;2057446;28;20054;-50
2022/10/14 04:56:07;;;;;;;4.07;2.70;;;;;;;21.54;61.74;98797.84;2058815;28;20046;-51
2022/10/14 04:57:08;;;;;;;3.45;2.80;;;;;;;21.55;62.04;98800.28;2060557;28;20046;-51
2022/10/14 04:58:10;;;;;;;4.07;3.35;;;;;;;21.53;61.79;98802.38;2057170;28;20046;-52
2022/10/14 04:59:12;;;;;;;5.43;3.78;;;;;;;21.54;61.72;98797.84;2060469;28;20050;-49
2022/10/14 05:00:15;;;;;;;3.60;3.22;;;;;;;21.54;61.81;98800.53;2059543;28;20065;-51
2022/10/14 05:01:17;;;;;;;3.60;2.90;;;;;;;21.54;61.96;98795.94;2058847;28;20050;-49
2022/10/14 05:02:19;;;;;;;4.63;3.67;;;;;;;21.54;61.77;98795.94;2060585;28;20078;-54
2022/10/14 05:03:19;;;;;;;5.25;2.92;;;;;;;21.53;61.64;98796.97;2060306;28;20626;-49
2022/10/14 05:04:21;;;;;;;3.13;2.75;;;;;;;21.53;61.91;98799.69;2059413;28;20061;-50